Time;durP1;ratioP1;P1;durP2;ratioP2;P2;SDS_P1;SDS_P2;PMS_P1;PMS_P2;Temp;Humidity;BMP_temperature;BMP_pressure;BME280_temperature;BME280_humidity;BME280_pressure;Samples;Min_cycle;Max_cycle;Signal;HPM_P1;HPM_P2
2023/10/27 00:00:58;;;;;;;2.50;1.23;;;10.00;45.00;;;;;;5032319;28;20240;-71
2023/10/27 00:03:24;;;;;;;2.57;1.50;;;10.00;45.60;;;;;;5032501;28;20406;-71
2023/10/27 00:05:50;;;;;;;2.60;1.50;;;10.00;44.90;;;;;;5032223;28;20675;-71
2023/10/27 00:08:16;;;;;;;2.80;1.53;;;10.00;45.50;;;;;;5014503;28;20476;-70
2023/10/27 00:10:41;;;;;;;3.37;1.67;;;9.90;46.20;;;;;;5031847;28;20687;-71
2023/10/27 00:13:07;;;;;;;6.27;1.30;;;9.90;47.10;;;;;;5032211;28;20171;-69
2023/10/27 00:15:33;;;;;;;5.10;1.57;;;9.90;46.00;;;;;;5032025;28;20202;-68
2023/10/27 00:17:59;;;;;;;3.63;1.33;;;9.90;45.80;;;;;;5031195;28;20680;-70
2023/10/27 00:20:25;;;;;;;6.50;1.40;;;9.90;45.00;;;;;;5032022;28;20278;-70
2023/10/27 00:22:51;;;;;;;10.03;2.93;;;9.90;45.70;;;;;;5032091;28;20421;-69
2023/10/27 00:25:17;;;;;;;3.30;1.27;;;10.00;45.40;;;;;;5032164;28;20438;-70
2023/10/27 00:27:42;;;;;;;3.40;1.67;;;10.00;44.30;;;;;;5032154;28;20254;-71
2023/10/27 00:30:09;;;;;;;2.13;1.20;;;10.00;44.60;;;;;;5031515;28;20199;-71
2023/10/27 00:32:36;;;;;;;3.10;1.50;;;10.00;45.20;;;;;;5014445;28;20259;-71
2023/10/27 00:35:02;;;;;;;4.83;1.80;;;10.00;42.90;;;;;;5031716;28;20426;-71
2023/10/27 00:37:28;;;;;;;2.00;1.03;;;10.00;43.30;;;;;;5031668;28;20422;-70
2023/10/27 00:39:53;;;;;;;3.80;1.40;;;10.00;44.00;;;;;;5013705;28;20425;-70
2023/10/27 00:42:19;;;;;;;3.43;1.40;;;9.90;44.30;;;;;;5031770;28;20183;-69
2023/10/27 00:44:44;;;;;;;7.97;2.90;;;9.90;44.40;;;;;;5031973;28;20214;-72
2023/10/27 00:47:10;;;;;;;2.47;1.23;;;10.00;43.50;;;;;;5032977;28;20646;-70
2023/10/27 00:49:36;;;;;;;2.67;1.30;;;10.00;42.60;;;;;;5032404;28;20593;-70
2023/10/27 00:52:02;;;;;;;1.97;1.00;;;10.00;42.20;;;;;;5032463;28;20410;-71
2023/10/27 00:54:28;;;;;;;1.90;0.90;;;10.00;42.60;;;;;;5030530;28;20183;-71
2023/10/27 00:56:55;;;;;;;1.87;0.80;;;9.90;44.30;;;;;;5032001;28;20750;-71
2023/10/27 00:59:21;;;;;;;2.67;1.20;;;9.90;42.20;;;;;;5031414;28;20417;-71
2023/10/27 01:01:47;;;;;;;2.23;1.27;;;9.90;42.90;;;;;;5031563;28;20416;-71
2023/10/27 01:04:12;;;;;;;5.77;1.47;;;9.90;43.80;;;;;;5031319;28;20645;-71
2023/10/27 01:06:38;;;;;;;3.00;1.30;;;9.90;44.10;;;;;;5031497;28;20215;-71
2023/10/27 01:09:04;;;;;;;5.40;1.83;;;9.90;43.70;;;;;;5031316;28;20600;-71
2023/10/27 01:11:29;;;;;;;2.07;1.03;;;9.90;44.60;;;;;;5031671;28;20642;-71
2023/10/27 01:13:55;;;;;;;2.13;0.90;;;9.90;44.30;;;;;;5031273;28;20175;-71
2023/10/27 01:16:21;;;;;;;4.00;1.27;;;9.90;43.70;;;;;;5031201;28;20206;-71
2023/10/27 01:18:47;;;;;;;2.47;0.80;;;9.90;44.20;;;;;;5031289;28;20221;-71
2023/10/27 01:21:13;;;;;;;6.20;1.50;;;9.90;44.20;;;;;;5031029;28;20509;-71
2023/10/27 01:23:39;;;;;;;3.33;1.50;;;9.90;43.10;;;;;;5031308;28;20426;-70
2023/10/27 01:26:05;;;;;;;3.10;1.00;;;9.90;43.30;;;;;;5031142;28;21000;-69
2023/10/27 01:28:31;;;;;;;4.43;1.40;;;9.80;45.70;;;;;;5031933;28;20175;-70
2023/10/27 01:30:57;;;;;;;3.20;1.27;;;9.80;46.10;;;;;;5034778;28;20292;-70
2023/10/27 01:33:23;;;;;;;3.40;1.67;;;9.90;46.10;;;;;;5035125;28;20859;-70
2023/10/27 01:35:51;;;;;;;2.70;1.13;;;9.90;45.00;;;;;;5035013;28;20286;-70
2023/10/27 01:38:16;;;;;;;5.03;1.50;;;9.80;45.20;;;;;;5034959;28;20438;-70
2023/10/27 01:40:42;;;;;;;3.53;1.00;;;9.80;44.60;;;;;;5016938;28;20451;-70
2023/10/27 01:43:08;;;;;;;3.00;1.43;;;9.80;46.40;;;;;;5034756;28;20186;-69
2023/10/27 01:45:33;;;;;;;2.50;1.33;;;9.80;45.80;;;;;;5034862;28;20629;-69
2023/10/27 01:47:59;;;;;;;2.80;1.33;;;9.80;44.80;;;;;;5034775;28;20175;-70
2023/10/27 01:50:24;;;;;;;4.80;0.87;;;9.80;44.20;;;;;;5034370;28;20648;-70
2023/10/27 01:52:50;;;;;;;3.50;1.20;;;9.80;44.60;;;;;;5034802;28;20179;-70
2023/10/27 01:55:15;;;;;;;2.37;1.10;;;9.80;43.00;;;;;;5034887;28;20249;-70
2023/10/27 01:57:41;;;;;;;2.00;1.00;;;9.80;42.10;;;;;;5034817;28;20171;-70
2023/10/27 02:00:07;;;;;;;2.30;1.20;;;9.80;42.10;;;;;;5034575;28;20541;-71
2023/10/27 02:02:34;;;;;;;5.07;0.90;;;9.80;43.30;;;;;;5034708;28;20545;-71
2023/10/27 02:05:01;;;;;;;2.70;1.40;;;9.80;43.20;;;;;;5032872;28;20511;-71
2023/10/27 02:07:27;;;;;;;2.13;0.73;;;9.80;43.40;;;;;;5034325;28;20416;-71
2023/10/27 02:09:53;;;;;;;3.90;1.10;;;9.80;42.10;;;;;;5034595;28;20797;-70
2023/10/27 02:12:18;;;;;;;2.47;1.10;;;9.80;42.10;;;;;;5034414;28;20179;-71
2023/10/27 02:14:44;;;;;;;3.20;0.87;;;9.80;43.70;;;;;;5016430;28;20206;-71
2023/10/27 02:17:11;;;;;;;3.10;1.63;;;9.80;44.30;;;;;;5016811;28;20186;-70
2023/10/27 02:19:37;;;;;;;3.60;2.33;;;9.80;42.10;;;;;;5034490;28;20186;-71
2023/10/27 02:22:02;;;;;;;3.70;2.30;;;9.80;42.10;;;;;;5034729;28;20406;-70
2023/10/27 02:24:28;;;;;;;2.63;1.90;;;9.80;42.10;;;;;;5034873;28;20271;-70
2023/10/27 02:26:54;;;;;;;3.33;2.17;;;9.80;43.20;;;;;;5034570;28;20198;-70
2023/10/27 02:29:20;;;;;;;3.23;1.70;;;9.80;42.70;;;;;;5034005;28;20175;-70
2023/10/27 02:31:46;;;;;;;3.53;2.60;;;9.90;43.20;;;;;;5033981;28;20199;-70
2023/10/27 02:34:11;;;;;;;2.40;1.40;;;9.90;42.20;;;;;;5034272;28;20441;-70
2023/10/27 02:36:37;;;;;;;2.10;1.30;;;9.90;42.20;;;;;;5034133;28;20210;-70
2023/10/27 02:39:02;;;;;;;2.60;1.53;;;9.90;40.30;;;;;;5033751;28;20175;-70
2023/10/27 02:41:28;;;;;;;2.07;1.30;;;9.90;41.30;;;;;;5032750;28;20254;-70
2023/10/27 02:43:54;;;;;;;6.90;1.70;;;9.90;40.00;;;;;;5034102;28;20199;-71
2023/10/27 02:46:19;;;;;;;2.73;1.10;;;9.80;39.40;;;;;;5033814;28;20207;-70
2023/10/27 02:48:45;;;;;;;4.03;1.00;;;9.80;40.00;;;;;;5033770;28;20594;-70
2023/10/27 02:51:12;;;;;;;2.27;1.30;;;9.70;41.10;;;;;;5033514;28;20522;-70
2023/10/27 02:53:37;;;;;;;2.00;1.10;;;9.60;41.90;;;;;;5015826;28;20182;-70
2023/10/27 02:56:09;;;;;;;2.63;1.20;;;9.60;42.00;;;;;;5015938;28;20429;-70
2023/10/27 02:58:36;;;;;;;2.63;1.13;;;9.60;43.50;;;;;;5034057;28;20604;-71
2023/10/27 03:01:08;;;;;;;1.93;1.03;;;9.60;43.90;;;;;;5033732;28;20417;-72
2023/10/27 03:03:34;;;;;;;3.80;1.67;;;9.60;43.50;;;;;;5033506;28;20835;-70
2023/10/27 03:06:01;;;;;;;2.00;1.10;;;9.60;44.30;;;;;;5033271;28;20495;-70
2023/10/27 03:08:26;;;;;;;2.33;1.00;;;9.60;43.90;;;;;;5033772;28;20425;-70
2023/10/27 03:10:52;;;;;;;3.43;1.63;;;9.60;44.80;;;;;;5032932;28;21100;-70
2023/10/27 03:13:18;;;;;;;3.07;1.40;;;9.50;43.30;;;;;;5033347;28;20194;-70
2023/10/27 03:15:43;;;;;;;2.40;1.30;;;9.50;44.40;;;;;;5033084;28;20191;-70
2023/10/27 03:18:09;;;;;;;2.33;1.20;;;9.50;44.50;;;;;;5015240;28;20419;-71
2023/10/27 03:20:34;;;;;;;2.37;1.10;;;9.60;45.10;;;;;;5032952;28;20258;-71
2023/10/27 03:23:00;;;;;;;2.63;1.20;;;9.60;43.50;;;;;;5032953;28;20192;-71
2023/10/27 03:25:25;;;;;;;1.80;1.10;;;9.60;43.80;;;;;;5015092;28;20195;-71
2023/10/27 03:27:51;;;;;;;2.00;1.17;;;9.60;43.40;;;;;;5032940;28;20182;-71
2023/10/27 03:30:16;;;;;;;5.20;0.97;;;9.60;42.80;;;;;;5032657;28;20278;-71
2023/10/27 03:32:42;;;;;;;3.80;1.43;;;9.60;43.70;;;;;;5032575;28;20175;-71
2023/10/27 03:35:08;;;;;;;4.20;1.50;;;9.60;41.90;;;;;;5032395;28;20591;-71
2023/10/27 03:37:33;;;;;;;1.90;0.90;;;9.60;43.20;;;;;;5032530;28;20229;-71
2023/10/27 03:40:00;;;;;;;2.20;0.90;;;9.60;43.80;;;;;;5032212;28;20175;-71
2023/10/27 03:42:26;;;;;;;2.60;1.17;;;9.60;42.60;;;;;;5032416;28;20167;-71
2023/10/27 03:44:51;;;;;;;2.27;0.87;;;9.60;42.90;;;;;;5032252;28;20444;-71
2023/10/27 03:47:17;;;;;;;1.97;1.03;;;9.70;42.00;;;;;;5032222;28;20182;-71
2023/10/27 03:49:42;;;;;;;1.90;1.17;;;9.70;42.00;;;;;;5031870;28;20167;-71
2023/10/27 03:52:09;;;;;;;2.17;0.97;;;9.70;42.00;;;;;;5031941;28;20186;-70
2023/10/27 03:54:35;;;;;;;4.23;1.10;;;9.70;42.00;;;;;;5032060;28;20167;-71
2023/10/27 03:57:01;;;;;;;2.00;0.90;;;9.70;41.20;;;;;;5032064;28;20398;-71
2023/10/27 03:59:27;;;;;;;1.80;0.70;;;9.60;40.30;;;;;;5032077;28;20413;-71
2023/10/27 04:01:53;;;;;;;3.00;1.00;;;9.60;41.00;;;;;;5032365;28;20414;-70
2023/10/27 04:04:22;;;;;;;3.63;0.90;;;9.60;40.40;;;;;;5032276;28;20931;-70
2023/10/27 04:06:47;;;;;;;2.13;0.93;;;9.50;40.10;;;;;;5014484;28;20199;-70
2023/10/27 04:09:13;;;;;;;2.47;0.90;;;9.50;41.50;;;;;;5014079;28;21056;-71
2023/10/27 04:11:39;;;;;;;2.37;1.00;;;9.50;41.80;;;;;;5032542;28;20269;-70
2023/10/27 04:14:05;;;;;;;2.27;1.00;;;9.50;41.90;;;;;;5032347;28;20245;-70
2023/10/27 04:16:31;;;;;;;2.50;1.23;;;9.50;41.80;;;;;;5032355;28;20217;-70
2023/10/27 04:18:57;;;;;;;3.30;1.13;;;9.50;42.60;;;;;;5032347;28;20903;-70
2023/10/27 04:21:23;;;;;;;1.97;0.90;;;9.50;41.90;;;;;;5031641;28;20414;-71
2023/10/27 04:23:48;;;;;;;2.60;1.00;;;9.50;41.80;;;;;;5031828;28;20815;-70
2023/10/27 04:26:15;;;;;;;2.67;1.17;;;9.50;42.40;;;;;;5031867;28;20634;-70
2023/10/27 04:28:42;;;;;;;2.53;1.17;;;9.60;41.90;;;;;;5031722;28;20266;-70
2023/10/27 04:31:08;;;;;;;3.40;1.23;;;9.60;41.90;;;;;;5031526;28;20507;-69
2023/10/27 04:33:37;;;;;;;3.63;0.90;;;9.60;41.90;;;;;;5031636;28;20418;-70
2023/10/27 04:36:04;;;;;;;1.53;0.73;;;9.60;40.70;;;;;;5031406;28;20434;-69
2023/10/27 04:38:29;;;;;;;2.70;1.00;;;9.70;39.40;;;;;;5031428;28;20848;-69
2023/10/27 04:40:55;;;;;;;2.03;1.07;;;9.70;39.00;;;;;;5031328;28;20508;-69
2023/10/27 04:43:21;;;;;;;1.90;1.00;;;9.70;38.10;;;;;;5031368;28;20175;-70
2023/10/27 04:45:47;;;;;;;1.90;0.70;;;9.70;38.50;;;;;;5031470;28;20687;-70
2023/10/27 04:48:13;;;;;;;2.50;1.10;;;9.80;38.90;;;;;;5031463;28;20178;-70
2023/10/27 04:50:39;;;;;;;1.60;0.77;;;9.80;38.60;;;;;;5031048;28;20457;-70
2023/10/27 04:53:04;;;;;;;1.70;0.73;;;9.80;38.00;;;;;;5031392;28;20415;-70
2023/10/27 04:55:30;;;;;;;3.50;1.10;;;9.80;38.00;;;;;;5031480;28;20550;-70
2023/10/27 04:57:55;;;;;;;2.57;1.00;;;9.90;37.80;;;;;;5031287;28;20636;-70
2023/10/27 05:00:21;;;;;;;5.13;1.77;;;9.90;36.50;;;;;;5031502;28;20259;-70
2023/10/27 05:02:47;;;;;;;4.73;1.30;;;10.00;34.90;;;;;;5031153;28;20193;-70
2023/10/27 05:05:12;;;;;;;2.87;1.00;;;10.00;35.70;;;;;;5030964;28;20639;-70
2023/10/27 05:07:38;;;;;;;2.00;0.93;;;10.00;36.20;;;;;;5031266;28;20624;-70
2023/10/27 05:10:07;;;;;;;2.27;1.30;;;10.00;36.20;;;;;;5030913;28;20285;-70
2023/10/27 05:12:34;;;;;;;2.10;1.47;;;10.10;36.20;;;;;;5031331;28;20512;-70
2023/10/27 05:15:00;;;;;;;2.03;1.00;;;10.10;36.20;;;;;;5031388;28;20775;-70
2023/10/27 05:17:25;;;;;;;2.87;0.90;;;10.10;35.50;;;;;;5013558;28;20464;-70
2023/10/27 05:19:51;;;;;;;2.07;0.77;;;10.20;37.00;;;;;;5013548;28;20270;-70
2023/10/27 05:22:18;;;;;;;3.63;1.13;;;10.20;37.00;;;;;;5031072;28;20599;-68
2023/10/27 05:24:44;;;;;;;2.93;1.53;;;10.20;37.50;;;;;;5031099;28;20202;-69
2023/10/27 05:27:09;;;;;;;2.20;1.00;;;10.30;37.10;;;;;;5031165;28;20410;-70
2023/10/27 05:29:35;;;;;;;3.20;1.00;;;10.40;36.50;;;;;;5012987;28;20179;-69
2023/10/27 05:32:00;;;;;;;2.00;1.10;;;10.40;35.00;;;;;;5031204;28;20178;-70
2023/10/27 05:34:26;;;;;;;2.73;1.00;;;10.40;34.70;;;;;;5031451;28;20187;-70
2023/10/27 05:36:51;;;;;;;3.00;1.27;;;10.50;36.00;;;;;;5031242;28;20271;-70
2023/10/27 05:39:17;;;;;;;2.93;1.20;;;10.50;35.80;;;;;;5030812;28;20179;-70
2023/10/27 05:41:47;;;;;;;2.53;1.43;;;10.50;35.00;;;;;;5030999;28;20175;-70
2023/10/27 05:44:13;;;;;;;2.97;1.10;;;10.50;35.60;;;;;;5031206;28;20258;-69
2023/10/27 05:46:39;;;;;;;2.50;1.50;;;10.50;35.60;;;;;;5030919;28;20445;-70
2023/10/27 05:49:05;;;;;;;2.50;1.23;;;10.40;38.60;;;;;;5013036;28;20421;-70
2023/10/27 05:51:33;;;;;;;2.20;1.30;;;10.50;37.80;;;;;;5030966;28;20484;-70
2023/10/27 05:53:58;;;;;;;6.03;2.33;;;10.50;39.60;;;;;;5031000;28;20195;-70
2023/10/27 05:56:27;;;;;;;2.30;1.40;;;10.40;40.00;;;;;;5030785;28;20512;-70
2023/10/27 05:58:52;;;;;;;2.73;1.57;;;10.50;39.90;;;;;;5013298;28;20179;-70
2023/10/27 06:01:19;;;;;;;2.47;1.10;;;10.50;41.70;;;;;;5013024;28;20429;-70
2023/10/27 06:03:45;;;;;;;3.47;1.50;;;10.50;41.70;;;;;;5030951;28;20182;-70
2023/10/27 06:06:10;;;;;;;2.00;1.43;;;10.50;41.70;;;;;;5030812;28;20449;-70
2023/10/27 06:08:42;;;;;;;3.00;2.17;;;10.50;41.90;;;;;;5030919;28;20177;-70
2023/10/27 06:11:08;;;;;;;2.10;1.03;;;10.50;41.70;;;;;;5030444;28;20211;-70
2023/10/27 06:13:34;;;;;;;2.83;1.40;;;10.50;42.70;;;;;;5030999;28;20412;-70
2023/10/27 06:15:59;;;;;;;2.00;1.27;;;10.50;43.50;;;;;;5032137;28;20436;-70
2023/10/27 06:18:25;;;;;;;2.53;1.13;;;10.50;45.00;;;;;;5034558;28;20495;-70
2023/10/27 06:20:50;;;;;;;2.00;1.00;;;10.50;43.70;;;;;;5034327;28;20187;-70
2023/10/27 06:23:16;;;;;;;2.70;0.97;;;10.40;40.30;;;;;;5034452;28;20254;-70
2023/10/27 06:25:42;;;;;;;4.70;1.53;;;10.30;41.30;;;;;;5034106;28;20199;-70
2023/10/27 06:28:07;;;;;;;1.77;0.70;;;10.30;41.10;;;;;;5034504;28;20274;-70
2023/10/27 06:30:33;;;;;;;2.33;1.20;;;10.30;42.20;;;;;;5033711;28;20191;-71
2023/10/27 06:32:59;;;;;;;2.33;1.07;;;10.40;42.00;;;;;;5033990;28;20183;-71
2023/10/27 06:35:25;;;;;;;2.83;1.10;;;10.40;41.60;;;;;;5033932;28;20210;-71
2023/10/27 06:37:51;;;;;;;6.43;0.87;;;10.40;41.70;;;;;;5033984;28;20414;-68
2023/10/27 06:40:17;;;;;;;1.90;1.00;;;10.50;42.30;;;;;;5033527;28;20722;-70
2023/10/27 06:42:42;;;;;;;1.60;0.60;;;10.50;41.50;;;;;;5033804;28;20636;-70
2023/10/27 06:45:08;;;;;;;1.60;0.70;;;10.60;41.10;;;;;;5033378;28;20263;-70
2023/10/27 06:47:35;;;;;;;1.40;0.60;;;10.60;39.10;;;;;;5033967;28;20168;-70
2023/10/27 06:50:04;;;;;;;1.77;1.00;;;10.60;38.90;;;;;;5033506;28;20457;-70
2023/10/27 06:52:33;;;;;;;2.57;1.00;;;10.70;37.80;;;;;;5033703;28;20513;-71
2023/10/27 06:54:59;;;;;;;1.40;0.53;;;10.70;36.80;;;;;;5033719;28;20444;-71
2023/10/27 06:57:25;;;;;;;2.37;0.50;;;10.80;33.40;;;;;;5033467;28;20774;-71
2023/10/27 06:59:51;;;;;;;2.00;0.70;;;10.90;32.40;;;;;;5033204;28;20410;-71
2023/10/27 07:02:17;;;;;;;1.70;0.83;;;10.90;31.70;;;;;;5033380;28;20199;-71
2023/10/27 07:04:43;;;;;;;2.93;0.57;;;10.90;31.70;;;;;;5033321;28;20466;-70
2023/10/27 07:07:09;;;;;;;2.00;0.60;;;11.00;31.90;;;;;;5066613;22;20263;-67
2023/10/27 07:09:34;;;;;;;1.40;0.53;;;11.00;31.80;;;;;;5015246;28;20404;-69
2023/10/27 07:12:00;;;;;;;2.13;0.60;;;10.90;29.00;;;;;;5015634;28;20549;-69
2023/10/27 07:14:26;;;;;;;1.67;0.70;;;10.90;30.00;;;;;;5013766;28;20175;-69
2023/10/27 07:16:54;;;;;;;2.00;1.00;;;10.90;29.90;;;;;;4999923;28;20700;-69
2023/10/27 07:19:20;;;;;;;1.50;0.70;;;11.00;30.70;;;;;;4995433;28;20798;-69
2023/10/27 07:21:46;;;;;;;1.60;0.70;;;11.00;30.40;;;;;;4995503;28;20419;-69
2023/10/27 07:24:11;;;;;;;2.90;0.70;;;11.00;30.20;;;;;;4993413;28;20187;-69
2023/10/27 07:26:37;;;;;;;1.60;0.60;;;11.00;29.50;;;;;;4994127;28;20284;-69
2023/10/27 07:29:03;;;;;;;2.20;0.60;;;11.10;29.80;;;;;;4994519;28;20261;-69
2023/10/27 07:31:29;;;;;;;1.50;0.77;;;11.00;29.90;;;;;;4994229;28;20287;-69
2023/10/27 07:33:55;;;;;;;1.93;0.80;;;11.00;30.10;;;;;;4994539;28;20848;-69
2023/10/27 07:36:21;;;;;;;2.60;0.70;;;11.00;27.50;;;;;;4995059;28;20601;-69
2023/10/27 07:38:49;;;;;;;2.47;1.13;;;11.00;28.00;;;;;;4995188;28;20506;-68
2023/10/27 07:41:15;;;;;;;2.73;1.50;;;11.00;28.30;;;;;;4995182;28;20412;-69
2023/10/27 07:43:40;;;;;;;2.80;1.40;;;11.10;28.30;;;;;;4995041;28;20415;-69
2023/10/27 07:46:06;;;;;;;4.00;1.40;;;11.10;26.70;;;;;;4995626;28;20193;-69
2023/10/27 07:48:32;;;;;;;5.00;2.70;;;11.00;26.80;;;;;;4994984;28;20196;-69
2023/10/27 07:50:58;;;;;;;4.20;3.00;;;11.10;26.90;;;;;;4993750;28;20288;-69
2023/10/27 07:53:24;;;;;;;5.13;2.43;;;11.10;27.40;;;;;;4994119;28;20868;-69
2023/10/27 07:55:50;;;;;;;4.30;2.30;;;11.20;25.50;;;;;;4993369;28;20444;-69
2023/10/27 07:58:16;;;;;;;2.53;0.90;;;11.30;26.10;;;;;;4994590;28;20550;-69
2023/10/27 08:00:42;;;;;;;2.20;1.10;;;11.30;25.20;;;;;;4993766;28;20184;-69
2023/10/27 08:03:07;;;;;;;1.90;1.23;;;11.40;24.90;;;;;;4993867;28;20205;-69
2023/10/27 08:05:33;;;;;;;5.67;5.07;;;11.50;24.60;;;;;;4993668;28;20219;-69
2023/10/27 08:07:58;;;;;;;2.67;1.00;;;11.50;23.60;;;;;;4993734;28;20505;-69
2023/10/27 08:10:24;;;;;;;2.37;0.67;;;11.50;22.20;;;;;;4993488;28;20534;-69
2023/10/27 08:12:50;;;;;;;4.57;2.00;;;11.50;20.70;;;;;;4992439;28;20177;-68
2023/10/27 08:15:16;;;;;;;2.57;0.93;;;11.70;20.80;;;;;;4993475;28;20499;-68
2023/10/27 08:17:42;;;;;;;2.67;0.80;;;12.10;19.50;;;;;;4992290;28;20425;-68
2023/10/27 08:20:08;;;;;;;3.07;0.70;;;12.50;17.30;;;;;;4993506;28;20182;-69
2023/10/27 08:22:34;;;;;;;3.80;0.87;;;12.70;12.00;;;;;;4993536;28;20183;-69
2023/10/27 08:25:00;;;;;;;1.60;0.50;;;12.90;13.20;;;;;;4993849;28;20451;-67
2023/10/27 08:27:26;;;;;;;1.60;0.60;;;13.20;11.10;;;;;;4993225;28;20448;-67
2023/10/27 08:29:56;;;;;;;1.80;0.70;;;13.30;11.10;;;;;;4992877;28;20234;-67
2023/10/27 08:32:24;;;;;;;1.60;0.73;;;13.20;10.20;;;;;;4991771;28;20177;-70
2023/10/27 08:34:49;;;;;;;2.00;0.80;;;13.00;10.80;;;;;;4993162;28;20784;-69
2023/10/27 08:37:16;;;;;;;2.27;0.90;;;13.10;10.90;;;;;;4993448;28;20431;-68
2023/10/27 08:39:42;;;;;;;3.30;0.77;;;12.80;11.60;;;;;;4992520;28;20173;-67
2023/10/27 08:42:08;;;;;;;1.60;0.60;;;12.50;14.10;;;;;;4992310;28;20480;-67
2023/10/27 08:44:35;;;;;;;1.50;0.50;;;12.20;16.10;;;;;;4991753;28;20415;-69
2023/10/27 08:47:04;;;;;;;1.97;0.70;;;12.00;18.10;;;;;;4992265;28;20447;-67
2023/10/27 08:49:30;;;;;;;1.60;0.70;;;12.10;15.80;;;;;;4993814;28;20435;-70
2023/10/27 08:51:59;;;;;;;2.23;0.77;;;12.50;17.00;;;;;;4991865;28;21026;-69
2023/10/27 08:54:24;;;;;;;1.93;0.80;;;12.70;14.40;;;;;;4991812;28;20427;-67
2023/10/27 08:56:50;;;;;;;2.50;1.57;;;12.60;14.50;;;;;;4993059;28;20435;-67
2023/10/27 08:59:16;;;;;;;2.17;0.63;;;12.80;14.80;;;;;;4992779;28;20179;-67
2023/10/27 09:01:43;;;;;;;1.60;0.60;;;12.90;14.40;;;;;;4993129;28;20603;-68
2023/10/27 09:04:13;;;;;;;1.67;0.60;;;12.70;12.20;;;;;;4992866;28;20187;-68
2023/10/27 09:06:40;;;;;;;1.93;0.90;;;12.80;11.10;;;;;;4991099;28;20459;-68
2023/10/27 09:09:07;;;;;;;2.73;0.90;;;12.80;11.10;;;;;;4992804;28;20412;-68
2023/10/27 09:11:43;;;;;;;2.23;0.80;;;12.70;10.70;;;;;;4991432;28;20624;-67
2023/10/27 09:14:39;;;;;;;2.33;0.80;;;12.90;11.20;;;;;;4992877;28;20498;-67
2023/10/27 09:17:11;;;;;;;3.30;0.97;;;13.00;9.70;;;;;;5008092;28;20451;-67
2023/10/27 09:19:37;;;;;;;1.63;0.73;;;13.10;8.40;;;;;;4992504;28;20947;-67
2023/10/27 09:22:15;;;;;;;2.73;1.00;;;13.20;8.50;;;;;;4992689;28;20418;-67
2023/10/27 09:24:41;;;;;;;2.20;0.77;;;13.20;7.10;;;;;;4991790;28;20958;-67
2023/10/27 09:27:06;;;;;;;2.80;1.13;;;13.00;5.50;;;;;;4992914;28;20435;-68
2023/10/27 09:29:42;;;;;;;3.03;0.93;;;13.00;5.20;;;;;;4993001;28;20193;-68
2023/10/27 09:32:26;;;;;;;2.03;1.00;;;12.90;3.90;;;;;;4991943;28;20546;-68
2023/10/27 09:35:13;;;;;;;3.80;1.43;;;12.70;1.40;;;;;;4993776;28;20495;-68
2023/10/27 09:37:41;;;;;;;2.00;0.90;;;12.80;2.60;;;;;;4993884;28;20747;-67
2023/10/27 09:40:11;;;;;;;1.80;0.90;;;12.80;2.00;;;;;;4992991;28;20419;-68
2023/10/27 09:42:38;;;;;;;2.27;0.90;;;12.90;2.20;;;;;;4991763;28;20445;-68
2023/10/27 09:45:09;;;;;;;2.97;0.90;;;12.90;1.00;;;;;;4993060;28;20414;-68
2023/10/27 09:47:43;;;;;;;2.97;1.03;;;13.00;1.00;;;;;;4993127;28;20408;-68
2023/10/27 09:50:13;;;;;;;2.93;1.13;;;13.00;1.00;;;;;;4994971;28;20467;-68
2023/10/27 09:52:43;;;;;;;2.87;1.07;;;13.10;1.20;;;;;;4997428;28;20439;-67
2023/10/27 09:55:12;;;;;;;1.90;1.07;;;13.20;1.00;;;;;;4996882;28;20458;-68
2023/10/27 09:57:39;;;;;;;2.03;0.93;;;13.20;1.00;;;;;;4997299;28;20406;-68
2023/10/27 10:00:08;;;;;;;2.83;1.03;;;13.50;1.00;;;;;;4996481;28;21015;-67
2023/10/27 10:02:35;;;;;;;2.23;0.90;;;13.70;1.00;;;;;;5013582;28;20431;-67
2023/10/27 10:05:01;;;;;;;4.30;1.17;;;13.50;1.00;;;;;;4997939;28;20415;-69
2023/10/27 10:07:30;;;;;;;2.53;1.10;;;13.50;1.00;;;;;;4996890;28;20420;-68
2023/10/27 10:09:56;;;;;;;2.50;0.77;;;13.50;1.00;;;;;;4997453;28;20206;-69
2023/10/27 10:12:21;;;;;;;4.67;1.67;;;13.40;2.00;;;;;;4997331;28;20416;-68
2023/10/27 10:14:50;;;;;;;3.50;1.70;;;13.50;1.00;;;;;;4996917;28;20434;-68
2023/10/27 10:17:39;;;;;;;5.00;1.40;;;13.30;1.00;;;;;;4995551;28;20208;-68
2023/10/27 10:20:05;;;;;;;2.50;1.07;;;13.10;1.00;;;;;;4994565;28;20463;-69
2023/10/27 10:22:40;;;;;;;1.87;0.77;;;12.90;1.00;;;;;;4995880;28;20434;-68
2023/10/27 10:25:17;;;;;;;3.27;1.07;;;12.90;1.00;;;;;;5011035;28;20949;-70
2023/10/27 10:28:08;;;;;;;3.43;1.23;;;13.10;1.00;;;;;;5011249;28;20793;-68
2023/10/27 10:30:36;;;;;;;5.17;2.03;;;13.50;1.00;;;;;;4996998;28;20455;-69
2023/10/27 10:33:16;;;;;;;4.57;1.27;;;13.80;1.00;;;;;;4996991;28;20859;-69
2023/10/27 10:35:43;;;;;;;3.87;1.20;;;13.90;1.00;;;;;;5011039;28;20875;-69
2023/10/27 10:38:21;;;;;;;2.40;1.07;;;14.10;1.00;;;;;;4994470;28;20559;-69
2023/10/27 10:40:53;;;;;;;2.60;1.10;;;14.00;1.00;;;;;;4995608;28;20477;-69
2023/10/27 10:43:33;;;;;;;2.47;1.33;;;14.20;1.00;;;;;;4994980;28;20461;-69
2023/10/27 10:46:00;;;;;;;4.13;1.60;;;14.20;1.00;;;;;;4995886;28;20471;-69
2023/10/27 10:48:28;;;;;;;2.37;1.00;;;14.40;1.00;;;;;;4995894;28;20428;-68
2023/10/27 10:50:59;;;;;;;2.67;1.27;;;14.60;1.00;;;;;;4995938;28;20459;-69
2023/10/27 10:53:24;;;;;;;4.17;1.13;;;14.80;1.00;;;;;;4996564;28;20431;-69
2023/10/27 10:55:55;;;;;;;3.00;1.40;;;14.90;1.00;;;;;;4996066;28;20444;-69
2023/10/27 10:58:22;;;;;;;2.50;1.30;;;15.00;1.00;;;;;;4994888;28;20827;-69
2023/10/27 11:00:51;;;;;;;2.93;0.90;;;15.20;1.00;;;;;;4995549;28;20444;-68
2023/10/27 11:03:17;;;;;;;3.10;1.17;;;15.50;1.00;;;;;;4995955;28;20935;-68
2023/10/27 11:05:43;;;;;;;2.27;1.07;;;15.20;1.00;;;;;;4995574;28;20681;-68
2023/10/27 11:08:09;;;;;;;3.70;1.73;;;15.00;1.00;;;;;;4996196;28;20917;-69
2023/10/27 11:10:35;;;;;;;7.30;1.40;;;14.90;1.00;;;;;;4995172;28;20776;-69
2023/10/27 11:13:09;;;;;;;2.27;0.90;;;15.10;1.00;;;;;;4996370;28;20181;-69
2023/10/27 11:15:44;;;;;;;9.80;2.20;;;15.10;1.00;;;;;;4996521;28;20608;-69
2023/10/27 11:18:14;;;;;;;2.73;1.40;;;15.30;1.00;;;;;;4997442;28;20797;-69
2023/10/27 11:20:43;;;;;;;2.03;1.17;;;15.60;1.00;;;;;;4997170;28;20789;-69
2023/10/27 11:23:14;;;;;;;4.87;1.10;;;15.80;1.00;;;;;;4995556;28;20432;-69
2023/10/27 11:25:43;;;;;;;5.10;1.63;;;15.50;1.00;;;;;;4995683;28;20443;-69
2023/10/27 11:28:26;;;;;;;2.10;1.40;;;15.10;1.00;;;;;;4995458;28;20492;-69
2023/10/27 11:31:23;;;;;;;5.63;1.80;;;15.10;1.00;;;;;;4994723;28;20462;-69
2023/10/27 11:34:11;;;;;;;2.40;1.20;;;14.90;1.00;;;;;;4994600;28;20416;-68
2023/10/27 11:36:46;;;;;;;2.87;1.30;;;14.90;1.00;;;;;;4994560;28;20434;-68
2023/10/27 11:39:22;;;;;;;5.30;1.60;;;14.90;1.00;;;;;;4994319;28;20422;-69
2023/10/27 11:42:01;;;;;;;1.93;1.23;;;15.10;1.00;;;;;;4993396;28;20434;-69
2023/10/27 11:44:33;;;;;;;2.90;1.20;;;15.00;1.00;;;;;;4994996;28;20447;-69
2023/10/27 11:47:00;;;;;;;1.93;1.10;;;15.30;1.00;;;;;;4993817;28;20536;-69
2023/10/27 11:49:27;;;;;;;4.97;1.70;;;15.90;1.00;;;;;;4995918;28;20478;-69
2023/10/27 11:51:56;;;;;;;3.73;1.70;;;15.90;1.00;;;;;;4995245;28;20460;-69
2023/10/27 11:54:26;;;;;;;2.37;1.10;;;16.10;1.00;;;;;;4995499;28;20420;-70
2023/10/27 11:56:52;;;;;;;1.90;1.30;;;16.20;1.00;;;;;;4994233;28;20439;-68
2023/10/27 11:59:20;;;;;;;3.97;1.40;;;16.20;1.00;;;;;;4994410;28;20416;-68
2023/10/27 12:01:45;;;;;;;5.03;2.23;;;16.30;1.00;;;;;;4994929;28;20419;-68
2023/10/27 12:04:14;;;;;;;2.83;1.70;;;16.70;1.00;;;;;;4995008;28;20455;-69
2023/10/27 12:06:43;;;;;;;4.13;1.27;;;16.90;1.00;;;;;;4994568;28;20495;-68
2023/10/27 12:09:11;;;;;;;2.43;1.30;;;16.60;1.00;;;;;;4994298;28;20503;-69
2023/10/27 12:11:37;;;;;;;2.20;1.20;;;16.40;1.00;;;;;;4994060;28;20892;-68
2023/10/27 12:14:03;;;;;;;3.83;1.43;;;16.30;1.00;;;;;;4994249;28;20778;-69
2023/10/27 12:16:29;;;;;;;2.50;1.23;;;16.50;1.00;;;;;;4994454;28;20439;-69
2023/10/27 12:18:57;;;;;;;2.20;1.20;;;16.60;1.00;;;;;;4992950;28;20184;-69
2023/10/27 12:21:25;;;;;;;1.97;1.00;;;16.30;1.00;;;;;;4992865;28;20482;-69
2023/10/27 12:23:50;;;;;;;3.10;1.40;;;16.00;1.00;;;;;;4993587;28;20611;-68
2023/10/27 12:26:16;;;;;;;1.90;0.80;;;15.80;1.00;;;;;;4993883;28;20435;-69
2023/10/27 12:28:42;;;;;;;2.23;1.10;;;15.90;1.00;;;;;;4994000;28;20180;-68
2023/10/27 12:31:10;;;;;;;4.73;1.00;;;15.90;1.00;;;;;;4992599;28;20212;-69
2023/10/27 12:33:35;;;;;;;5.73;1.50;;;16.10;1.00;;;;;;4994694;28;20182;-69
2023/10/27 12:36:11;;;;;;;2.80;1.23;;;16.50;1.00;;;;;;4994689;28;20518;-69
2023/10/27 12:38:41;;;;;;;2.73;1.20;;;16.60;1.00;;;;;;4993106;28;20176;-69
2023/10/27 12:41:07;;;;;;;2.83;1.13;;;16.50;1.00;;;;;;4993639;28;20431;-69
2023/10/27 12:43:33;;;;;;;3.70;1.20;;;16.40;1.00;;;;;;4994217;28;20427;-69
2023/10/27 12:46:05;;;;;;;3.77;1.30;;;16.30;1.00;;;;;;4994081;28;21014;-69
2023/10/27 12:48:32;;;;;;;2.37;1.10;;;16.00;1.00;;;;;;4993998;28;20192;-69
2023/10/27 12:50:59;;;;;;;2.37;1.20;;;15.60;1.00;;;;;;4993153;28;20456;-68
2023/10/27 12:53:27;;;;;;;1.97;0.90;;;15.40;1.00;;;;;;4993974;28;21037;-69